This is the latest recevied weather packets stored in our database for station/object Kisslegg. If no packets are shown the sender has not sent any weather packets the latest 10 day(s).
| Time | Temp. | Humidity | Pressure | Rain* | Wind** | Luminosity | Snow |
|---|---|---|---|---|---|---|---|
| 1777618930 | 8.33° C | 52% | 1026.2 hPa | 0 mm | - | - | - |
| 1777617131 | 7.22° C | 53% | 1026 hPa | 0 mm | - | - | - |
| 1777615333 | 5.56° C | 56% | 1025.8 hPa | 0 mm | - | - | - |
| 1777613531 | 5° C | 55% | 1025.6 hPa | 0 mm | - | - | - |
| 1777611731 | 4.44° C | 55% | 1025.3 hPa | 0 mm | - | - | - |
| 1777609931 | 3.89° C | 56% | 1025 hPa | 0 mm | - | - | - |
| 1777608131 | 4.44° C | 53% | 1024.9 hPa | 0 mm | - | - | - |
| 1777606332 | 4.44° C | 51% | 1025 hPa | 0 mm | - | - | - |
| 1777604532 | 5° C | 49% | 1025 hPa | 0 mm | - | - | - |
| 1777602733 | 5° C | 47% | 1025 hPa | 0 mm | - | - | - |
| 1777600931 | 5.56° C | 46% | 1025.1 hPa | 0 mm | - | - | - |
| 1777599131 | 5.56° C | 45% | 1025.1 hPa | 0 mm | - | - | - |
| 1777597332 | 5.56° C | 44% | 1025.1 hPa | 0 mm | - | - | - |
| 1777595529 | 6.11° C | 43% | 1025 hPa | 0 mm | - | - | - |
| 1777593730 | 6.11° C | 42% | 1025.1 hPa | 0 mm | - | - | - |
| 1777591929 | 6.67° C | 42% | 1024.9 hPa | 0 mm | - | - | - |
| 1777590129 | 6.67° C | 43% | 1025 hPa | 0 mm | - | - | - |
| 1777588329 | 7.22° C | 42% | 1024.9 hPa | 0 mm | - | - | - |
| 1777586529 | 7.78° C | 42% | 1024.9 hPa | 0 mm | - | - | - |
| 1777584729 | 7.78° C | 41% | 1025 hPa | 0 mm | - | - | - |
| 1777582929 | 7.78° C | 39% | 1024.9 hPa | 0 mm | - | - | - |
| 1777581135 | 8.33° C | 37% | 1024.8 hPa | 0 mm | - | - | - |
| 1777579329 | 8.89° C | 36% | 1024.6 hPa | 0 mm | - | - | - |
| 1777577529 | 9.44° C | 34% | 1024.3 hPa | 0 mm | - | - | - |
| 1777575735 | 10.56° C | 33% | 1024.2 hPa | 0 mm | - | - | - |
* Rain since midnight (hover to see other rain measurements)
** Current wind speed in m/s (hover to see current wind gust speed)